Weather at Kedma Airport

Public forecast

Using degrees Celsius for public forecast. Weather courtesy of forecast.io.

Closest aviation weather report (METAR) to Kedma Airport

Report is more than 6 hours old.

Closest report is Ben Gurion International Airport, 19.8 nm (36.7 km) NNE.

2024/06/24 06:20 (retrieved 1 day ago)

LLBG 240620Z 20004KT 9999 SCT022 29/22 Q1007 NOSIG

Closest aviation forecast (TAF) to Kedma Airport

Forecast is more than 12 hours old.

Closest forecast is Ben Gurion International Airport, 19.8 nm (36.7 km) NNE.

2024/06/24 19:31 Ammendment (retrieved 13 hours ago)

TAF AMD LLBG 241921Z 2419/2518 VRB04KT CAVOK TEMPO 2419/2506 7000 BKN014 BECMG 2507/2509 28010KT TX33/2512Z TN23/2504Z